createdAt,value
2018-08-31T00:00:41.389Z,13.74
2018-08-31T00:01:41.581Z,13.81
2018-08-31T00:02:41.746Z,13.68
2018-08-31T00:03:41.926Z,13.78
2018-08-31T00:04:42.105Z,13.83
2018-08-31T00:05:42.281Z,13.74
2018-08-31T00:06:42.454Z,13.90
2018-08-31T00:07:42.641Z,13.97
2018-08-31T00:08:42.825Z,14.04
2018-08-31T00:09:42.988Z,13.97
2018-08-31T00:10:43.175Z,14.00
2018-08-31T00:11:43.354Z,14.08
2018-08-31T00:12:43.532Z,14.15
2018-08-31T00:13:43.714Z,14.26
2018-08-31T00:14:43.890Z,14.17
2018-08-31T00:15:44.068Z,14.29
2018-08-31T00:16:44.243Z,14.33
2018-08-31T00:17:44.422Z,14.28
2018-08-31T00:18:44.597Z,14.29
2018-08-31T00:19:44.775Z,14.25
2018-08-31T00:20:44.952Z,14.25
2018-08-31T00:21:45.133Z,14.32
2018-08-31T00:22:45.306Z,14.30
2018-08-31T00:23:45.499Z,14.20
2018-08-31T00:24:45.662Z,14.20
2018-08-31T00:25:45.852Z,14.07
2018-08-31T00:26:46.023Z,14.04
2018-08-31T00:27:46.444Z,14.04
2018-08-31T00:28:46.378Z,14.07
2018-08-31T00:29:46.556Z,14.07
2018-08-31T00:30:46.975Z,14.07
2018-08-31T00:31:46.916Z,14.11
2018-08-31T00:32:47.084Z,14.10
2018-08-31T00:33:47.265Z,14.10
2018-08-31T00:34:47.443Z,14.17
2018-08-31T00:35:47.626Z,14.08
2018-08-31T00:36:47.803Z,14.17
2018-08-31T00:37:47.985Z,14.10
2018-08-31T00:38:48.166Z,14.10
2018-08-31T00:39:48.343Z,14.10
2018-08-31T00:40:48.521Z,14.17
2018-08-31T00:41:48.693Z,14.18
2018-08-31T00:42:48.872Z,14.25
2018-08-31T00:43:49.051Z,14.26
2018-08-31T00:44:49.230Z,14.32
2018-08-31T00:45:49.406Z,14.33
2018-08-31T00:46:49.585Z,14.26
2018-08-31T00:47:49.767Z,14.30
2018-08-31T00:48:49.957Z,14.26
2018-08-31T00:49:50.115Z,14.35
2018-08-31T00:50:50.293Z,14.41
2018-08-31T00:51:50.477Z,14.29
2018-08-31T00:52:50.648Z,14.30
2018-08-31T00:53:50.833Z,14.35
2018-08-31T00:54:51.004Z,14.32
2018-08-31T00:55:51.187Z,14.30
2018-08-31T00:56:51.369Z,14.26
2018-08-31T00:57:51.546Z,14.28
2018-08-31T00:58:51.741Z,14.33
2018-08-31T00:59:51.899Z,13.83
2018-08-31T01:00:52.078Z,13.65
2018-08-31T01:01:52.256Z,13.68
2018-08-31T01:02:52.436Z,13.27
2018-08-31T01:03:52.615Z,13.30
2018-08-31T01:04:52.793Z,13.28
2018-08-31T01:05:52.971Z,13.19
2018-08-31T01:06:53.152Z,13.18
2018-08-31T01:07:53.342Z,13.20
2018-08-31T01:08:53.513Z,13.25
2018-08-31T01:09:53.691Z,13.38
2018-08-31T01:10:53.870Z,13.42
2018-08-31T01:11:54.051Z,13.47
2018-08-31T01:12:54.226Z,13.59
2018-08-31T01:13:54.404Z,13.60
2018-08-31T01:14:54.576Z,13.67
2018-08-31T01:15:54.756Z,13.75
2018-08-31T01:16:54.932Z,13.77
2018-08-31T01:17:55.368Z,13.70
2018-08-31T01:18:55.292Z,13.79
2018-08-31T01:19:55.473Z,13.83
2018-08-31T01:21:55.817Z,13.89
2018-08-31T01:22:55.997Z,13.87
2018-08-31T01:23:56.175Z,13.85
2018-08-31T01:24:56.350Z,13.86
2018-08-31T01:25:56.533Z,13.96
2018-08-31T01:26:56.708Z,13.97
2018-08-31T01:27:57.148Z,13.90
2018-08-31T01:28:57.060Z,14.03
2018-08-31T01:29:57.248Z,14.08
2018-08-31T01:30:57.427Z,14.18
2018-08-31T01:31:57.596Z,14.17
2018-08-31T01:32:57.782Z,14.15
2018-08-31T01:33:57.948Z,14.11
2018-08-31T01:34:58.126Z,14.12
2018-08-31T01:35:58.329Z,14.17
2018-08-31T01:36:58.484Z,14.17
2018-08-31T01:37:58.680Z,14.20
2018-08-31T01:38:58.863Z,14.26
2018-08-31T01:39:59.076Z,14.17
2018-08-31T01:40:59.233Z,14.18
2018-08-31T01:41:59.407Z,14.25
2018-08-31T01:42:59.585Z,14.15
2018-08-31T01:43:59.753Z,14.23
2018-08-31T01:44:59.932Z,14.17
2018-08-31T01:46:00.116Z,14.18
2018-08-31T01:47:00.287Z,14.11
2018-08-31T01:48:00.464Z,14.18
2018-08-31T01:49:00.643Z,14.17
2018-08-31T01:50:00.840Z,14.18
2018-08-31T01:51:00.997Z,14.17
2018-08-31T01:52:01.171Z,14.25
2018-08-31T01:53:01.357Z,14.07
2018-08-31T01:54:01.527Z,14.12
2018-08-31T01:55:01.708Z,14.08
2018-08-31T01:56:01.890Z,14.12
2018-08-31T01:57:02.067Z,14.07
2018-08-31T01:58:02.243Z,14.14
2018-08-31T01:59:02.422Z,14.08
2018-08-31T02:00:02.623Z,14.10
2018-08-31T02:01:02.800Z,14.15
2018-08-31T02:02:02.986Z,14.12
2018-08-31T02:03:03.157Z,14.04
2018-08-31T02:04:03.383Z,14.04
2018-08-31T02:06:03.687Z,14.07
2018-08-31T02:07:03.863Z,14.11
2018-08-31T02:08:04.043Z,13.97
2018-08-31T02:09:04.220Z,14.12
2018-08-31T02:10:04.399Z,14.14
2018-08-31T02:11:04.567Z,14.00
2018-08-31T02:12:04.753Z,14.03
2018-08-31T02:13:04.932Z,14.00
2018-08-31T02:14:05.108Z,13.89
2018-08-31T02:15:05.308Z,13.70
2018-08-31T02:16:05.459Z,13.78
2018-08-31T02:17:05.642Z,13.70
2018-08-31T02:18:05.821Z,13.71
2018-08-31T02:19:05.995Z,13.63
2018-08-31T02:20:06.174Z,13.67
2018-08-31T02:21:06.415Z,13.63
2018-08-31T02:22:06.551Z,13.59
2018-08-31T02:23:06.728Z,13.62
2018-08-31T02:24:06.914Z,13.49
2018-08-31T02:25:07.080Z,13.37
2018-08-31T02:26:07.251Z,13.46
2018-08-31T02:27:07.435Z,13.39
2018-08-31T02:28:07.610Z,13.42
2018-08-31T02:29:07.787Z,13.38
2018-08-31T02:30:07.975Z,13.42
2018-08-31T02:31:08.146Z,13.47
2018-08-31T02:32:08.321Z,13.50
2018-08-31T02:33:08.497Z,13.52
2018-08-31T02:34:08.673Z,13.56
2018-08-31T02:35:08.846Z,13.57
2018-08-31T02:36:09.030Z,13.54
2018-08-31T02:37:09.209Z,13.50
2018-08-31T02:38:09.385Z,13.56
2018-08-31T02:39:09.630Z,13.53
2018-08-31T02:40:09.737Z,13.50
2018-08-31T02:41:09.926Z,13.49
2018-08-31T02:42:10.084Z,13.52
2018-08-31T02:43:10.262Z,13.52
2018-08-31T02:44:11.224Z,13.60
2018-08-31T02:45:10.661Z,13.53
2018-08-31T02:46:10.845Z,13.63
2018-08-31T02:47:11.023Z,13.67
2018-08-31T02:48:11.197Z,13.63
2018-08-31T02:49:11.380Z,13.68
2018-08-31T02:50:11.561Z,13.77
2018-08-31T02:51:11.739Z,13.62
2018-08-31T02:52:11.917Z,13.57
2018-08-31T02:53:12.096Z,13.57
2018-08-31T02:54:12.272Z,13.57
2018-08-31T02:55:12.450Z,13.62
2018-08-31T02:56:12.627Z,13.44
2018-08-31T02:57:12.792Z,13.47
2018-08-31T02:58:12.984Z,13.39
2018-08-31T02:59:13.173Z,13.44
2018-08-31T03:00:13.336Z,13.39
2018-08-31T03:01:13.512Z,13.38
2018-08-31T03:02:13.694Z,13.37
2018-08-31T03:03:13.870Z,13.30
2018-08-31T03:04:14.049Z,13.28
2018-08-31T03:05:14.222Z,13.18
2018-08-31T03:06:14.400Z,13.09
2018-08-31T03:07:14.591Z,13.23
2018-08-31T03:08:14.759Z,13.22
2018-08-31T03:09:14.928Z,13.28
2018-08-31T03:10:15.112Z,13.25
2018-08-31T03:11:15.286Z,13.15
2018-08-31T03:12:15.464Z,13.08
2018-08-31T03:13:15.644Z,13.03
2018-08-31T03:14:15.839Z,13.04
2018-08-31T03:15:16.021Z,12.91
2018-08-31T03:16:16.185Z,12.94
2018-08-31T03:17:16.367Z,12.85
2018-08-31T03:18:16.547Z,12.86
2018-08-31T03:19:16.723Z,12.91
2018-08-31T03:20:16.907Z,12.87
2018-08-31T03:21:17.149Z,12.91
2018-08-31T03:22:17.253Z,12.94
2018-08-31T03:23:17.421Z,12.93
2018-08-31T03:24:17.607Z,12.98
2018-08-31T03:25:17.779Z,13.00
2018-08-31T03:26:17.954Z,13.15
2018-08-31T03:27:18.134Z,13.08
2018-08-31T03:28:18.310Z,13.04
2018-08-31T03:29:18.491Z,13.04
2018-08-31T03:30:18.705Z,13.08
2018-08-31T03:31:18.886Z,13.16
2018-08-31T03:32:19.062Z,13.19
2018-08-31T03:33:19.234Z,13.16
2018-08-31T03:34:19.409Z,13.13
2018-08-31T03:35:19.595Z,13.18
2018-08-31T03:36:19.764Z,13.16
2018-08-31T03:37:19.941Z,13.19
2018-08-31T03:38:20.119Z,13.18
2018-08-31T03:39:20.305Z,13.16
2018-08-31T03:40:20.474Z,13.15
2018-08-31T03:41:20.649Z,13.22
2018-08-31T03:42:20.827Z,13.27
2018-08-31T03:43:21.004Z,13.35
2018-08-31T03:44:21.193Z,13.39
2018-08-31T03:45:21.364Z,13.39
2018-08-31T03:46:21.862Z,13.27
2018-08-31T03:47:21.719Z,13.30
2018-08-31T03:48:21.918Z,13.16
2018-08-31T03:49:22.088Z,13.23
2018-08-31T03:50:22.250Z,13.18
2018-08-31T03:51:22.484Z,13.22
2018-08-31T03:52:22.588Z,13.18
2018-08-31T03:53:22.767Z,13.18
2018-08-31T03:54:22.936Z,13.22
2018-08-31T03:55:23.117Z,13.19
2018-08-31T03:56:23.289Z,13.19
2018-08-31T03:57:23.458Z,13.22
2018-08-31T03:58:23.638Z,13.16
2018-08-31T03:59:23.812Z,13.18
2018-08-31T04:00:23.991Z,13.35
2018-08-31T04:01:24.173Z,13.20
2018-08-31T04:02:24.343Z,13.13
2018-08-31T04:03:24.532Z,13.19
2018-08-31T04:04:24.701Z,13.23
2018-08-31T04:05:24.888Z,13.22
2018-08-31T04:07:25.231Z,13.38
2018-08-31T04:08:25.411Z,13.30
2018-08-31T04:09:25.587Z,13.35
2018-08-31T04:10:25.769Z,13.35
2018-08-31T04:11:25.949Z,13.41
2018-08-31T04:12:26.121Z,13.42
2018-08-31T04:13:26.300Z,13.47
2018-08-31T04:14:26.473Z,13.42
2018-08-31T04:15:26.650Z,13.49
2018-08-31T04:16:26.836Z,13.47
2018-08-31T04:17:26.998Z,13.56
2018-08-31T04:18:27.185Z,13.44
2018-08-31T04:19:27.370Z,13.53
2018-08-31T04:20:27.532Z,13.53
2018-08-31T04:21:27.707Z,13.53
2018-08-31T04:22:27.890Z,13.52
2018-08-31T04:23:28.095Z,13.52
2018-08-31T04:24:28.262Z,13.59
2018-08-31T04:25:28.438Z,13.49
2018-08-31T04:26:28.617Z,13.42
2018-08-31T04:27:28.794Z,13.47
2018-08-31T04:28:28.974Z,13.46
2018-08-31T04:29:29.143Z,13.46
2018-08-31T04:30:29.319Z,13.27
2018-08-31T04:31:29.504Z,13.35
2018-08-31T04:32:29.672Z,13.27
2018-08-31T04:33:30.136Z,13.22
2018-08-31T04:34:30.033Z,13.25
2018-08-31T04:35:30.207Z,13.18
2018-08-31T04:36:30.383Z,13.20
2018-08-31T04:37:30.584Z,13.20
2018-08-31T04:38:30.747Z,13.12
2018-08-31T04:39:30.916Z,13.05
2018-08-31T04:40:31.099Z,13.11
2018-08-31T04:41:31.275Z,13.19
2018-08-31T04:42:31.450Z,13.18
2018-08-31T04:43:31.637Z,13.16
2018-08-31T04:44:31.809Z,13.08
2018-08-31T04:45:31.997Z,13.20
2018-08-31T04:46:32.149Z,13.20
2018-08-31T04:47:32.344Z,13.12
2018-08-31T04:48:32.525Z,13.23
2018-08-31T04:49:32.709Z,13.23
2018-08-31T04:50:32.967Z,13.18
2018-08-31T04:51:33.058Z,13.25
2018-08-31T04:52:33.661Z,13.23
2018-08-31T04:53:33.483Z,13.12
2018-08-31T04:54:33.649Z,13.15
2018-08-31T04:55:33.833Z,13.19
2018-08-31T04:56:34.007Z,13.19
2018-08-31T04:57:34.180Z,13.23
2018-08-31T04:58:34.368Z,13.15
2018-08-31T04:59:34.539Z,13.23
2018-08-31T05:00:34.726Z,13.18
2018-08-31T05:01:34.899Z,13.22
2018-08-31T05:02:35.067Z,13.20
2018-08-31T05:03:35.255Z,13.20
2018-08-31T05:04:35.449Z,13.25
2018-08-31T05:05:35.603Z,13.28
2018-08-31T05:06:35.778Z,13.27
2018-08-31T05:07:35.965Z,13.42
2018-08-31T05:08:36.139Z,13.42
2018-08-31T05:09:36.316Z,13.41
2018-08-31T05:10:36.500Z,13.49
2018-08-31T05:11:36.676Z,13.39
2018-08-31T05:12:36.862Z,13.37
2018-08-31T05:13:37.037Z,13.37
2018-08-31T05:14:37.212Z,13.37
2018-08-31T05:15:37.394Z,13.42
2018-08-31T05:16:37.569Z,13.44
2018-08-31T05:17:38.001Z,13.46
2018-08-31T05:18:37.929Z,13.53
2018-08-31T05:19:38.096Z,13.47
2018-08-31T05:20:38.290Z,13.59
2018-08-31T05:21:38.452Z,13.59
2018-08-31T05:22:38.664Z,13.68
2018-08-31T05:23:38.792Z,13.56
2018-08-31T05:24:38.979Z,13.62
2018-08-31T05:25:39.162Z,13.67
2018-08-31T05:26:39.341Z,13.70
2018-08-31T05:27:39.543Z,13.74
2018-08-31T05:28:39.710Z,13.68
2018-08-31T05:29:39.889Z,13.70
2018-08-31T05:30:40.072Z,13.85
2018-08-31T05:31:40.252Z,13.72
2018-08-31T05:32:40.426Z,13.86
2018-08-31T05:33:40.599Z,13.79
2018-08-31T05:34:40.787Z,13.95
2018-08-31T05:35:40.958Z,13.95
2018-08-31T05:36:41.142Z,14.03
2018-08-31T05:37:41.307Z,14.07
2018-08-31T05:38:41.496Z,14.14
2018-08-31T05:39:41.683Z,14.17
2018-08-31T05:40:41.862Z,14.22
2018-08-31T05:41:42.036Z,14.32
2018-08-31T05:42:42.215Z,14.33
2018-08-31T05:43:42.397Z,14.44
2018-08-31T05:44:42.571Z,14.44
2018-08-31T05:45:42.766Z,14.41
2018-08-31T05:46:42.925Z,14.37
2018-08-31T05:47:43.828Z,14.36
2018-08-31T05:48:43.248Z,14.28
2018-08-31T05:49:43.425Z,14.32
2018-08-31T05:50:43.589Z,14.33
2018-08-31T05:51:43.771Z,14.26
2018-08-31T05:52:43.948Z,14.32
2018-08-31T05:53:44.129Z,14.26
2018-08-31T05:54:44.308Z,14.25
2018-08-31T05:55:44.485Z,14.28
2018-08-31T05:56:44.667Z,14.36
2018-08-31T05:57:44.836Z,14.44
2018-08-31T05:58:45.022Z,14.29
2018-08-31T05:59:45.193Z,14.35
2018-08-31T06:00:45.369Z,14.35
2018-08-31T06:01:45.547Z,14.37
2018-08-31T06:02:45.729Z,14.37
2018-08-31T06:03:45.949Z,14.30
2018-08-31T06:04:46.146Z,14.40
2018-08-31T06:05:46.253Z,14.28
2018-08-31T06:06:46.416Z,14.18
2018-08-31T06:07:46.580Z,14.17
2018-08-31T06:08:46.774Z,14.26
2018-08-31T06:09:46.959Z,14.22
2018-08-31T06:10:47.120Z,14.25
2018-08-31T06:11:47.332Z,14.28
2018-08-31T06:12:47.486Z,14.26
2018-08-31T06:13:47.658Z,14.30
2018-08-31T06:14:48.086Z,14.25
2018-08-31T06:16:48.182Z,14.11
2018-08-31T06:17:48.352Z,14.17
2018-08-31T06:18:48.548Z,14.17
2018-08-31T06:19:48.722Z,14.17
2018-08-31T06:20:48.912Z,14.18
2018-08-31T06:21:49.094Z,14.36
2018-08-31T06:22:49.259Z,14.37
2018-08-31T06:23:49.432Z,14.36
2018-08-31T06:24:49.858Z,14.37
2018-08-31T06:25:49.773Z,14.32
2018-08-31T06:26:49.978Z,14.35
2018-08-31T06:27:50.133Z,14.35
2018-08-31T06:28:50.303Z,14.30
2018-08-31T06:29:50.558Z,14.51
2018-08-31T06:30:50.664Z,14.43
2018-08-31T06:31:50.851Z,14.44
2018-08-31T06:32:51.018Z,14.44
2018-08-31T06:33:51.243Z,14.41
2018-08-31T06:34:51.372Z,14.40
2018-08-31T06:35:51.547Z,14.40
2018-08-31T06:36:51.727Z,14.32
2018-08-31T06:37:52.135Z,14.45
2018-08-31T06:38:52.048Z,14.62
2018-08-31T06:39:52.239Z,14.60
2018-08-31T06:40:52.475Z,14.62
2018-08-31T06:41:52.598Z,14.62
2018-08-31T06:42:52.783Z,14.62
2018-08-31T06:43:52.911Z,14.59
2018-08-31T06:44:53.334Z,14.70
2018-08-31T06:45:53.258Z,14.72
2018-08-31T06:46:53.425Z,14.82
2018-08-31T06:47:53.854Z,14.78
2018-08-31T06:48:53.771Z,14.92
2018-08-31T06:49:53.962Z,14.91
2018-08-31T06:50:54.104Z,15.06
2018-08-31T06:51:54.275Z,15.10
2018-08-31T06:52:54.440Z,15.14
2018-08-31T06:53:54.601Z,14.96
2018-08-31T06:54:54.845Z,15.06
2018-08-31T06:55:54.973Z,15.11
2018-08-31T06:56:55.154Z,15.19
2018-08-31T06:58:55.537Z,15.35
2018-08-31T06:59:55.677Z,15.31
2018-08-31T07:00:55.877Z,15.44
2018-08-31T07:01:56.010Z,15.47
2018-08-31T07:02:56.207Z,15.36
2018-08-31T07:03:56.487Z,15.33
2018-08-31T07:04:56.563Z,15.39
2018-08-31T07:05:56.742Z,15.58
2018-08-31T07:06:56.904Z,15.52
2018-08-31T07:07:57.534Z,15.70
2018-08-31T07:08:57.270Z,15.73
2018-08-31T07:09:57.449Z,15.73
2018-08-31T07:10:57.615Z,15.88
2018-08-31T07:11:57.789Z,15.91
2018-08-31T07:12:57.969Z,15.94
2018-08-31T07:13:58.137Z,15.91
2018-08-31T07:14:58.319Z,15.97
2018-08-31T07:15:58.498Z,16.10
2018-08-31T07:16:58.683Z,16.15
2018-08-31T07:17:58.862Z,16.12
2018-08-31T07:18:59.023Z,16.13
2018-08-31T07:19:59.212Z,16.12
2018-08-31T07:20:59.378Z,16.15
2018-08-31T07:21:59.588Z,16.21
2018-08-31T07:22:59.706Z,16.33
2018-08-31T07:23:59.884Z,16.33
2018-08-31T07:25:00.059Z,16.20
2018-08-31T07:26:00.230Z,16.36
2018-08-31T07:27:00.406Z,16.58
2018-08-31T07:28:00.591Z,17.15
2018-08-31T07:29:00.764Z,17.54
2018-08-31T07:30:00.941Z,17.78
2018-08-31T07:31:01.106Z,18.00
2018-08-31T07:32:01.285Z,17.85
2018-08-31T07:33:01.459Z,17.92
2018-08-31T07:34:01.627Z,17.78
2018-08-31T07:35:01.796Z,17.71
2018-08-31T07:36:01.972Z,17.97
2018-08-31T07:37:02.150Z,18.04
2018-08-31T07:38:02.322Z,18.19
2018-08-31T07:39:02.500Z,18.04
2018-08-31T07:40:02.681Z,17.98
2018-08-31T07:41:02.868Z,17.85
2018-08-31T07:42:03.038Z,17.95
2018-08-31T07:43:03.215Z,17.48
2018-08-31T07:44:03.396Z,17.57
2018-08-31T07:45:03.589Z,17.79
2018-08-31T07:46:03.760Z,18.08
2018-08-31T07:47:03.969Z,18.18
2018-08-31T07:48:04.140Z,18.37
2018-08-31T07:49:04.297Z,18.74
2018-08-31T07:50:04.455Z,18.41
2018-08-31T07:51:04.631Z,17.79
2018-08-31T07:52:04.802Z,17.59
2018-08-31T07:53:05.097Z,17.74
2018-08-31T07:54:05.213Z,16.90
2018-08-31T07:55:05.373Z,17.31
2018-08-31T07:56:05.518Z,17.09
2018-08-31T07:57:05.698Z,16.96
2018-08-31T07:58:05.910Z,17.31
2018-08-31T07:59:06.045Z,17.95
2018-08-31T08:00:06.198Z,18.40
2018-08-31T08:01:06.368Z,18.29
2018-08-31T08:02:06.554Z,18.22
2018-08-31T08:03:06.735Z,18.10
2018-08-31T08:04:06.912Z,18.00
2018-08-31T08:05:07.087Z,17.63
2018-08-31T08:06:07.291Z,17.70
2018-08-31T08:07:07.440Z,17.86
2018-08-31T08:08:07.618Z,17.33
2018-08-31T08:09:07.764Z,17.26
2018-08-31T08:10:07.938Z,17.27
2018-08-31T08:11:08.134Z,17.57
2018-08-31T08:12:08.313Z,17.63
2018-08-31T08:13:08.479Z,18.00
2018-08-31T08:14:08.658Z,17.78
2018-08-31T08:15:08.820Z,17.85
2018-08-31T08:16:09.036Z,17.33
2018-08-31T08:17:09.189Z,17.49
2018-08-31T08:18:09.364Z,17.95
2018-08-31T08:19:09.527Z,18.26
2018-08-31T08:20:09.712Z,18.13
2018-08-31T08:21:09.885Z,18.34
2018-08-31T08:22:10.071Z,17.68
2018-08-31T08:23:10.271Z,17.92
2018-08-31T08:24:10.410Z,17.80
2018-08-31T08:25:10.582Z,17.70
2018-08-31T08:26:10.740Z,17.49
2018-08-31T08:27:10.911Z,17.64
2018-08-31T08:28:11.135Z,16.66
2018-08-31T08:29:11.308Z,16.97
2018-08-31T08:30:11.473Z,17.19
2018-08-31T08:31:11.638Z,17.11
2018-08-31T08:32:11.808Z,17.30
2018-08-31T08:33:11.991Z,17.52
2018-08-31T08:34:12.175Z,17.39
2018-08-31T08:35:12.327Z,17.42
2018-08-31T08:36:12.503Z,17.23
2018-08-31T08:37:12.685Z,17.64
2018-08-31T08:38:12.882Z,17.94
2018-08-31T08:39:13.027Z,18.01
2018-08-31T08:40:13.215Z,18.18
2018-08-31T08:41:13.387Z,17.92
2018-08-31T08:42:13.678Z,17.49
2018-08-31T08:43:13.767Z,17.78
2018-08-31T08:44:13.884Z,17.22
2018-08-31T08:45:14.812Z,17.63
2018-08-31T08:46:14.219Z,18.22
2018-08-31T08:47:14.403Z,17.92
2018-08-31T08:48:14.723Z,17.85
2018-08-31T08:49:14.749Z,17.90
2018-08-31T08:50:14.911Z,17.19
2018-08-31T08:51:15.078Z,17.05
2018-08-31T08:52:15.260Z,17.45
2018-08-31T08:53:15.441Z,17.85
2018-08-31T08:54:15.627Z,17.72
2018-08-31T08:55:15.781Z,17.89
2018-08-31T08:56:15.940Z,18.04
2018-08-31T08:57:16.103Z,18.15
2018-08-31T08:58:16.408Z,18.44
2018-08-31T08:59:16.440Z,18.34
2018-08-31T09:00:16.629Z,18.43
2018-08-31T09:01:16.809Z,18.18
2018-08-31T09:02:16.984Z,18.00
2018-08-31T09:03:17.172Z,18.00
2018-08-31T09:04:17.374Z,18.04
2018-08-31T09:05:17.542Z,18.00
2018-08-31T09:06:17.721Z,17.54
2018-08-31T09:07:17.993Z,17.74
2018-08-31T09:08:18.113Z,17.63
2018-08-31T09:09:18.286Z,17.39
2018-08-31T09:10:18.493Z,17.48
2018-08-31T09:11:18.635Z,17.46
2018-08-31T09:12:18.854Z,17.54
2018-08-31T09:13:18.988Z,17.83
2018-08-31T09:14:19.135Z,18.16
2018-08-31T09:15:19.305Z,18.19
2018-08-31T09:16:19.495Z,17.94
2018-08-31T09:17:19.671Z,17.65
2018-08-31T09:18:19.851Z,17.56
2018-08-31T09:19:19.985Z,17.57
2018-08-31T09:20:20.245Z,17.78
2018-08-31T09:21:20.308Z,17.70
2018-08-31T09:22:20.483Z,17.82
2018-08-31T09:23:20.675Z,17.85
2018-08-31T09:24:20.842Z,18.00
2018-08-31T09:25:21.020Z,18.26
2018-08-31T09:26:21.197Z,18.62
2018-08-31T09:27:21.375Z,18.62
2018-08-31T09:28:21.537Z,18.77
2018-08-31T09:29:21.722Z,19.26
2018-08-31T09:30:21.886Z,18.84
2018-08-31T09:31:22.325Z,19.52
2018-08-31T09:32:22.291Z,19.66
2018-08-31T09:33:22.485Z,20.00
2018-08-31T09:34:22.601Z,19.63
2018-08-31T09:35:22.788Z,18.92
2018-08-31T09:36:22.968Z,19.33
2018-08-31T09:37:23.131Z,19.11
2018-08-31T09:38:23.381Z,19.16
2018-08-31T09:39:23.557Z,19.34
2018-08-31T09:40:23.732Z,19.67
2018-08-31T09:41:23.962Z,19.64
2018-08-31T09:42:24.079Z,20.22
2018-08-31T09:43:24.299Z,20.78
2018-08-31T09:44:24.429Z,21.48
2018-08-31T09:45:24.683Z,21.55
2018-08-31T09:46:24.777Z,20.09
2018-08-31T09:47:24.959Z,19.41
2018-08-31T09:48:25.125Z,19.33
2018-08-31T09:49:25.301Z,19.33
2018-08-31T09:50:25.471Z,18.95
2018-08-31T09:51:25.659Z,19.64
2018-08-31T09:52:25.827Z,20.31
2018-08-31T09:53:25.998Z,19.67
2018-08-31T09:54:26.263Z,20.24
2018-08-31T09:55:26.363Z,20.40
2018-08-31T09:56:26.563Z,20.65
2018-08-31T09:57:26.726Z,20.92
2018-08-31T09:58:26.869Z,21.29
2018-08-31T09:59:27.050Z,20.93
2018-08-31T10:00:27.297Z,21.00
2018-08-31T10:02:27.581Z,21.33
2018-08-31T10:03:27.807Z,21.02
2018-08-31T10:04:27.969Z,20.36
2018-08-31T10:05:28.157Z,20.63
2018-08-31T10:06:28.337Z,20.59
2018-08-31T10:07:28.533Z,20.09
2018-08-31T10:08:28.799Z,20.69
2018-08-31T10:09:28.994Z,20.95
2018-08-31T10:10:29.182Z,21.37
2018-08-31T10:11:29.402Z,21.21
2018-08-31T10:12:29.864Z,21.55
2018-08-31T10:13:29.824Z,21.66
2018-08-31T10:14:29.881Z,21.76
2018-08-31T10:15:30.091Z,21.95
2018-08-31T10:16:30.210Z,21.85
2018-08-31T10:17:30.387Z,21.06
2018-08-31T10:18:30.594Z,20.95
2018-08-31T10:19:30.774Z,20.28
2018-08-31T10:20:30.907Z,19.81
2018-08-31T10:21:31.085Z,19.82
2018-08-31T10:22:31.264Z,19.71
2018-08-31T10:23:31.446Z,19.86
2018-08-31T10:24:31.640Z,19.66
2018-08-31T10:26:32.008Z,20.11
2018-08-31T10:27:32.176Z,20.25
2018-08-31T10:28:32.337Z,20.48
2018-08-31T10:29:32.562Z,20.44
2018-08-31T10:30:32.705Z,20.10
2018-08-31T10:31:32.882Z,20.11
2018-08-31T10:32:33.074Z,20.16
2018-08-31T10:33:33.249Z,20.09
2018-08-31T10:34:33.443Z,20.09
2018-08-31T10:35:33.632Z,20.02
2018-08-31T10:36:33.814Z,20.11
2018-08-31T10:37:34.027Z,20.36
2018-08-31T10:38:34.159Z,20.70
2018-08-31T10:39:34.358Z,21.05
2018-08-31T10:40:34.576Z,21.20
2018-08-31T10:41:34.689Z,21.14
2018-08-31T10:42:34.900Z,20.70
2018-08-31T10:43:35.092Z,20.21
2018-08-31T10:44:35.276Z,20.03
2018-08-31T10:45:35.429Z,19.99
2018-08-31T10:46:35.791Z,20.11
2018-08-31T10:47:35.785Z,20.47
2018-08-31T10:48:35.965Z,20.92
2018-08-31T10:49:36.273Z,20.97
2018-08-31T10:50:36.310Z,21.32
2018-08-31T10:51:36.541Z,20.87
2018-08-31T10:52:36.741Z,21.35
2018-08-31T10:53:36.935Z,21.62
2018-08-31T10:54:37.265Z,21.66
2018-08-31T10:55:37.383Z,21.60
2018-08-31T10:56:37.830Z,21.20
2018-08-31T10:57:37.641Z,21.50
2018-08-31T10:58:37.841Z,21.51
2018-08-31T10:59:38.021Z,20.77
2018-08-31T11:00:38.195Z,20.48
2018-08-31T11:01:38.389Z,20.81
2018-08-31T11:02:38.603Z,21.03
2018-08-31T11:03:38.737Z,21.29
2018-08-31T11:04:38.986Z,21.39
2018-08-31T11:05:39.050Z,20.28
2018-08-31T11:06:39.271Z,20.50
2018-08-31T11:07:39.487Z,20.55
2018-08-31T11:08:39.675Z,19.84
2018-08-31T11:09:39.835Z,19.41
2018-08-31T11:10:40.001Z,19.69
2018-08-31T11:11:40.181Z,19.77
2018-08-31T11:12:40.446Z,19.95
2018-08-31T11:13:40.519Z,20.04
2018-08-31T11:14:40.684Z,20.09
2018-08-31T11:15:40.877Z,19.84
2018-08-31T11:16:41.061Z,19.96
2018-08-31T11:17:41.224Z,19.74
2018-08-31T11:18:41.434Z,20.13
2018-08-31T11:19:41.583Z,20.44
2018-08-31T11:20:41.781Z,20.50
2018-08-31T11:21:41.945Z,20.10
2018-08-31T11:22:42.144Z,19.81
2018-08-31T11:23:42.322Z,19.63
2018-08-31T11:24:42.497Z,19.92
2018-08-31T11:25:42.675Z,20.26
2018-08-31T11:26:42.851Z,20.59
2018-08-31T11:27:43.060Z,20.72
2018-08-31T11:28:43.216Z,20.93
2018-08-31T11:29:43.406Z,20.85
2018-08-31T11:30:43.565Z,20.04
2018-08-31T11:31:43.736Z,20.06
2018-08-31T11:32:43.926Z,20.09
2018-08-31T11:33:44.107Z,19.89
2018-08-31T11:34:44.342Z,20.28
2018-08-31T11:35:44.532Z,20.50
2018-08-31T11:36:44.700Z,20.59
2018-08-31T11:37:44.871Z,20.48
2018-08-31T11:38:45.046Z,20.82
2018-08-31T11:39:45.234Z,20.99
2018-08-31T11:40:45.452Z,21.40
2018-08-31T11:41:45.617Z,21.52
2018-08-31T11:42:45.789Z,21.54
2018-08-31T11:43:45.980Z,20.82
2018-08-31T11:44:46.149Z,20.84
2018-08-31T11:45:46.332Z,20.62
2018-08-31T11:46:46.495Z,20.65
2018-08-31T11:47:46.695Z,20.58
2018-08-31T11:48:46.867Z,20.66
2018-08-31T11:49:47.052Z,20.52
2018-08-31T11:50:47.234Z,20.74
2018-08-31T11:51:47.423Z,20.65
2018-08-31T11:52:47.575Z,20.74
2018-08-31T11:53:47.785Z,20.36
2018-08-31T11:54:47.948Z,20.21
2018-08-31T11:55:48.138Z,20.70
2018-08-31T11:56:48.308Z,20.85
2018-08-31T11:57:48.498Z,20.55
2018-08-31T11:58:48.662Z,20.93
2018-08-31T11:59:48.824Z,21.42
2018-08-31T12:00:49.008Z,21.42
2018-08-31T12:01:49.231Z,21.42
2018-08-31T12:02:49.357Z,21.54
2018-08-31T12:03:49.802Z,21.54
2018-08-31T12:04:49.702Z,21.92
2018-08-31T12:05:49.866Z,22.06
2018-08-31T12:06:50.057Z,22.11
2018-08-31T12:07:50.320Z,22.07
2018-08-31T12:08:50.422Z,21.77
2018-08-31T12:09:50.631Z,21.30
2018-08-31T12:10:50.765Z,21.18
2018-08-31T12:11:50.948Z,21.33
2018-08-31T12:12:51.144Z,21.43
2018-08-31T12:13:51.305Z,21.52
2018-08-31T12:14:51.488Z,21.57
2018-08-31T12:15:51.667Z,21.88
2018-08-31T12:16:51.843Z,21.98
2018-08-31T12:17:52.055Z,21.99
2018-08-31T12:18:52.179Z,21.33
2018-08-31T12:19:52.355Z,21.25
2018-08-31T12:20:52.598Z,21.42
2018-08-31T12:21:52.773Z,21.51
2018-08-31T12:22:52.895Z,21.60
2018-08-31T12:23:53.063Z,21.64
2018-08-31T12:24:53.245Z,21.82
2018-08-31T12:25:53.422Z,21.85
2018-08-31T12:26:53.598Z,21.93
2018-08-31T12:27:53.800Z,22.10
2018-08-31T12:28:53.948Z,22.08
2018-08-31T12:29:54.132Z,21.96
2018-08-31T12:30:54.292Z,21.95
2018-08-31T12:31:54.481Z,22.00
2018-08-31T12:32:54.692Z,22.14
2018-08-31T12:33:54.868Z,22.28
2018-08-31T12:34:55.037Z,22.41
2018-08-31T12:35:55.217Z,22.47
2018-08-31T12:36:55.396Z,22.48
2018-08-31T12:37:55.596Z,22.50
2018-08-31T12:38:55.771Z,22.32
2018-08-31T12:39:55.926Z,22.23
2018-08-31T12:40:56.098Z,22.07
2018-08-31T12:41:56.292Z,22.11
2018-08-31T12:42:56.525Z,22.10
2018-08-31T12:43:56.829Z,22.08
2018-08-31T12:44:56.801Z,22.02
2018-08-31T12:45:56.997Z,21.72
2018-08-31T12:46:57.181Z,21.88
2018-08-31T12:47:57.359Z,21.82
2018-08-31T12:48:57.538Z,21.80
2018-08-31T12:49:57.729Z,21.46
2018-08-31T12:50:57.904Z,21.51
2018-08-31T12:51:58.070Z,21.61
2018-08-31T12:52:58.277Z,21.46
2018-08-31T12:53:58.433Z,21.55
2018-08-31T12:54:58.619Z,21.82
2018-08-31T12:55:58.799Z,21.82
2018-08-31T12:56:58.978Z,21.88
2018-08-31T12:57:59.144Z,21.91
2018-08-31T12:58:59.335Z,22.06
2018-08-31T12:59:59.555Z,22.06
2018-08-31T13:00:59.720Z,21.96
2018-08-31T13:01:59.886Z,21.91